createdAt,value
2022-10-19T00:01:03.250Z,20.44
2022-10-19T00:03:30.163Z,20.50
2022-10-19T00:05:57.066Z,20.44
2022-10-19T00:08:24.027Z,20.44
2022-10-19T00:10:50.923Z,20.44
2022-10-19T00:13:17.836Z,20.44
2022-10-19T00:15:44.762Z,20.44
2022-10-19T00:18:11.674Z,20.44
2022-10-19T00:20:38.595Z,20.44
2022-10-19T00:23:05.497Z,20.44
2022-10-19T00:25:32.407Z,20.44
2022-10-19T00:27:59.344Z,20.44
2022-10-19T00:30:26.291Z,20.44
2022-10-19T00:32:53.236Z,20.44
2022-10-19T00:35:20.172Z,20.44
2022-10-19T00:37:47.070Z,20.44
2022-10-19T00:40:13.984Z,20.44
2022-10-19T00:42:40.900Z,20.38
2022-10-19T00:45:07.817Z,20.44
2022-10-19T00:47:34.729Z,20.44
2022-10-19T00:50:01.632Z,20.44
2022-10-19T00:52:28.564Z,20.44
2022-10-19T00:54:55.545Z,20.44
2022-10-19T00:57:22.472Z,20.44
2022-10-19T00:59:49.383Z,20.44
2022-10-19T01:02:16.282Z,20.38
2022-10-19T01:04:43.166Z,20.44
2022-10-19T01:07:10.094Z,20.38
2022-10-19T01:09:37.000Z,20.44
2022-10-19T01:12:03.943Z,20.44
2022-10-19T01:14:30.862Z,20.44
2022-10-19T01:16:57.779Z,20.44
2022-10-19T01:19:24.696Z,20.44
2022-10-19T01:21:51.684Z,20.44
2022-10-19T01:24:18.574Z,20.44
2022-10-19T01:26:45.484Z,20.44
2022-10-19T01:29:12.422Z,20.44
2022-10-19T01:31:39.387Z,20.44
2022-10-19T01:34:06.325Z,20.44
2022-10-19T01:36:33.223Z,20.50
2022-10-19T01:39:00.142Z,20.50
2022-10-19T01:41:27.048Z,20.50
2022-10-19T01:43:53.946Z,20.50
2022-10-19T01:46:20.851Z,20.50
2022-10-19T01:48:47.756Z,20.50
2022-10-19T01:51:14.686Z,20.50
2022-10-19T01:53:41.628Z,20.50
2022-10-19T01:56:08.552Z,20.50
2022-10-19T01:58:35.478Z,20.50
2022-10-19T02:01:02.509Z,20.50
2022-10-19T02:03:29.528Z,20.50
2022-10-19T02:05:56.423Z,20.50
2022-10-19T02:08:23.311Z,20.50
2022-10-19T02:10:50.245Z,20.44
2022-10-19T02:13:17.151Z,20.44
2022-10-19T02:15:44.171Z,20.44
2022-10-19T02:18:11.101Z,20.44
2022-10-19T02:20:38.014Z,20.44
2022-10-19T02:23:04.926Z,20.44
2022-10-19T02:25:31.917Z,20.44
2022-10-19T02:27:58.838Z,20.44
2022-10-19T02:30:25.755Z,20.38
2022-10-19T02:32:52.676Z,20.44
2022-10-19T02:35:19.584Z,20.38
2022-10-19T02:37:46.516Z,20.38
2022-10-19T02:40:13.446Z,20.38
2022-10-19T02:42:40.379Z,20.38
2022-10-19T02:45:07.310Z,20.38
2022-10-19T02:47:34.469Z,20.38
2022-10-19T02:50:01.546Z,20.38
2022-10-19T02:52:28.447Z,20.38
2022-10-19T02:54:55.358Z,20.38
2022-10-19T02:57:22.333Z,20.38
2022-10-19T02:59:49.338Z,20.31
2022-10-19T03:02:16.249Z,20.38
2022-10-19T03:04:43.218Z,20.31
2022-10-19T03:07:10.151Z,20.31
2022-10-19T03:09:37.080Z,20.31
2022-10-19T03:12:03.995Z,20.31
2022-10-19T03:14:31.193Z,20.31
2022-10-19T03:16:58.126Z,20.31
2022-10-19T03:19:25.057Z,20.31
2022-10-19T03:21:51.994Z,20.31
2022-10-19T03:24:18.955Z,20.31
2022-10-19T03:26:45.859Z,20.31
2022-10-19T03:29:12.850Z,20.31
2022-10-19T03:31:39.781Z,20.31
2022-10-19T03:34:06.687Z,20.31
2022-10-19T03:36:34.114Z,20.25
2022-10-19T03:39:01.034Z,20.31
2022-10-19T03:41:27.954Z,20.25
2022-10-19T03:43:54.918Z,20.25
2022-10-19T03:46:21.864Z,20.31
2022-10-19T03:48:48.797Z,20.25
2022-10-19T03:51:15.708Z,20.25
2022-10-19T03:53:42.641Z,20.25
2022-10-19T03:56:09.577Z,20.25
2022-10-19T03:58:36.476Z,20.25
2022-10-19T04:01:03.440Z,20.25
2022-10-19T04:03:30.430Z,20.25
2022-10-19T04:05:57.395Z,20.25
2022-10-19T04:08:24.318Z,20.25
2022-10-19T04:10:51.261Z,20.25
2022-10-19T04:13:18.180Z,20.25
2022-10-19T04:15:45.103Z,20.25
2022-10-19T04:18:12.011Z,20.25
2022-10-19T04:20:38.922Z,20.25
2022-10-19T04:23:05.872Z,20.19
2022-10-19T04:25:32.791Z,20.19
2022-10-19T04:27:59.679Z,20.19
2022-10-19T04:30:26.640Z,20.19
2022-10-19T04:32:53.572Z,20.19
2022-10-19T04:35:20.479Z,20.19
2022-10-19T04:37:47.404Z,20.38
2022-10-19T04:40:15.123Z,20.44
2022-10-19T04:42:42.319Z,21.00
2022-10-19T04:45:09.247Z,23.25
2022-10-19T04:47:36.501Z,24.69
2022-10-19T04:50:03.623Z,25.50
2022-10-19T04:52:30.531Z,25.31
2022-10-19T04:54:57.473Z,24.94
2022-10-19T04:57:24.384Z,25.69
2022-10-19T04:59:51.297Z,26.31
2022-10-19T05:02:18.185Z,26.75
2022-10-19T05:04:45.285Z,27.13
2022-10-19T05:07:12.257Z,27.38
2022-10-19T05:09:39.170Z,27.50
2022-10-19T05:12:06.110Z,27.56
2022-10-19T05:14:33.009Z,27.63
2022-10-19T05:16:59.933Z,27.63
2022-10-19T05:19:26.847Z,27.69
2022-10-19T05:21:53.758Z,27.69
2022-10-19T05:24:20.673Z,27.56
2022-10-19T05:26:47.584Z,27.50
2022-10-19T05:29:14.544Z,27.44
2022-10-19T05:31:41.470Z,27.38
2022-10-19T05:36:40.221Z,27.31
2022-10-19T05:39:07.164Z,27.19
2022-10-19T05:41:34.076Z,26.88
2022-10-19T05:44:01.003Z,26.56
2022-10-19T05:46:27.941Z,26.44
2022-10-19T05:48:54.845Z,26.44
2022-10-19T05:51:21.774Z,26.44
2022-10-19T05:53:48.701Z,26.44
2022-10-19T05:56:15.610Z,26.44
2022-10-19T05:58:42.527Z,26.44
2022-10-19T06:01:09.421Z,26.44
2022-10-19T06:03:36.365Z,26.44
2022-10-19T06:06:03.307Z,26.44
2022-10-19T06:08:30.243Z,26.44
2022-10-19T06:10:57.148Z,26.44
2022-10-19T06:13:24.069Z,26.44
2022-10-19T06:15:50.988Z,26.44
2022-10-19T06:18:17.911Z,26.44
2022-10-19T06:20:44.809Z,26.44
2022-10-19T06:23:11.728Z,26.50
2022-10-19T06:25:38.644Z,26.25
2022-10-19T06:28:05.606Z,26.13
2022-10-19T06:30:32.648Z,26.31
2022-10-19T06:32:59.741Z,26.50
2022-10-19T06:35:26.753Z,26.56
2022-10-19T06:37:53.668Z,26.69
2022-10-19T06:40:20.657Z,26.75
2022-10-19T06:42:47.595Z,26.81
2022-10-19T06:45:14.514Z,26.88
2022-10-19T06:47:41.491Z,26.88
2022-10-19T06:50:08.447Z,26.88
2022-10-19T06:52:35.675Z,26.88
2022-10-19T06:55:02.763Z,26.81
2022-10-19T06:57:29.681Z,26.81
2022-10-19T06:59:56.605Z,26.56
2022-10-19T07:02:23.550Z,26.44
2022-10-19T07:04:50.456Z,26.44
2022-10-19T07:07:17.381Z,26.50
2022-10-19T07:09:44.293Z,26.56
2022-10-19T07:12:11.258Z,26.56
2022-10-19T07:14:38.186Z,26.56
2022-10-19T07:17:05.105Z,26.63
2022-10-19T07:19:32.041Z,26.63
2022-10-19T07:21:58.952Z,26.63
2022-10-19T07:24:25.907Z,26.63
2022-10-19T07:26:52.798Z,26.56
2022-10-19T07:29:19.722Z,26.56
2022-10-19T07:31:46.640Z,26.56
2022-10-19T07:34:13.549Z,26.56
2022-10-19T07:36:40.464Z,26.50
2022-10-19T07:39:07.371Z,26.56
2022-10-19T07:41:34.350Z,26.44
2022-10-19T07:44:01.275Z,26.25
2022-10-19T07:46:28.181Z,26.44
2022-10-19T07:48:55.142Z,26.56
2022-10-19T07:51:22.069Z,26.69
2022-10-19T07:53:48.999Z,26.75
2022-10-19T07:56:15.927Z,26.81
2022-10-19T07:58:42.840Z,26.88
2022-10-19T08:01:09.751Z,26.94
2022-10-19T08:04:42.820Z,26.94
2022-10-19T08:06:23.587Z,26.94
2022-10-19T08:08:50.566Z,26.94
2022-10-19T08:11:17.512Z,26.94
2022-10-19T08:13:44.392Z,26.88
2022-10-19T08:16:11.312Z,26.75
2022-10-19T08:18:38.302Z,26.63
2022-10-19T08:21:05.221Z,26.63
2022-10-19T08:23:32.160Z,26.63
2022-10-19T08:25:59.084Z,26.63
2022-10-19T08:28:26.032Z,26.63
2022-10-19T08:30:52.954Z,26.63
2022-10-19T08:33:19.856Z,26.63
2022-10-19T08:35:46.751Z,26.63
2022-10-19T08:38:13.686Z,26.63
2022-10-19T08:40:40.621Z,26.63
2022-10-19T08:43:07.549Z,26.63
2022-10-19T08:45:34.551Z,26.56
2022-10-19T08:48:01.512Z,26.56
2022-10-19T08:50:28.459Z,26.56
2022-10-19T08:52:55.380Z,26.56
2022-10-19T08:55:22.343Z,26.63
2022-10-19T08:57:49.252Z,26.63
2022-10-19T09:00:16.261Z,26.56
2022-10-19T09:02:43.183Z,26.38
2022-10-19T09:05:10.109Z,26.38
2022-10-19T09:07:37.040Z,26.56
2022-10-19T09:10:03.971Z,26.69
2022-10-19T09:12:30.906Z,26.81
2022-10-19T09:14:57.822Z,26.94
2022-10-19T09:17:24.767Z,27.00
2022-10-19T09:19:51.684Z,27.06
2022-10-19T09:22:18.619Z,27.06
2022-10-19T09:24:45.514Z,27.06
2022-10-19T09:27:12.447Z,27.13
2022-10-19T09:29:39.349Z,27.13
2022-10-19T09:32:06.258Z,27.06
2022-10-19T09:34:33.190Z,27.06
2022-10-19T09:37:00.173Z,26.94
2022-10-19T09:39:29.451Z,26.69
2022-10-19T09:41:56.770Z,26.69
2022-10-19T09:44:23.663Z,26.69
2022-10-19T09:46:50.582Z,26.75
2022-10-19T09:49:17.512Z,26.75
2022-10-19T09:51:44.415Z,26.75
2022-10-19T09:54:11.330Z,26.75
2022-10-19T09:56:38.300Z,26.75
2022-10-19T09:59:05.218Z,26.75
2022-10-19T10:01:41.822Z,26.75
2022-10-19T10:04:09.785Z,26.75
2022-10-19T10:06:36.725Z,26.69
2022-10-19T10:09:03.695Z,26.69
2022-10-19T10:11:30.656Z,26.69
2022-10-19T10:13:57.721Z,26.69
2022-10-19T10:16:24.618Z,26.69
2022-10-19T10:18:51.592Z,26.69
2022-10-19T10:21:21.634Z,26.69
2022-10-19T10:23:51.132Z,26.50
2022-10-19T10:26:18.062Z,26.38
2022-10-19T10:28:44.971Z,26.31
2022-10-19T10:31:11.871Z,26.19
2022-10-19T10:33:46.269Z,26.13
2022-10-19T10:36:13.326Z,26.00
2022-10-19T10:38:40.233Z,25.94
2022-10-19T10:41:07.150Z,25.88
2022-10-19T10:43:34.071Z,25.81
2022-10-19T10:46:01.000Z,25.81
2022-10-19T10:48:27.968Z,25.75
2022-10-19T10:50:54.888Z,25.69
2022-10-19T10:53:21.826Z,25.63
2022-10-19T10:55:48.746Z,25.56
2022-10-19T10:58:15.682Z,25.50
2022-10-19T11:00:42.575Z,25.44
2022-10-19T11:03:09.502Z,25.38
2022-10-19T11:05:36.452Z,25.38
2022-10-19T11:08:03.416Z,25.31
2022-10-19T11:10:30.318Z,25.25
2022-10-19T11:12:57.306Z,25.25
2022-10-19T11:15:24.322Z,25.19
2022-10-19T11:17:51.306Z,25.19
2022-10-19T11:20:18.270Z,25.13
2022-10-19T11:22:45.284Z,25.06
2022-10-19T11:25:12.196Z,25.00
2022-10-19T11:27:39.112Z,24.88
2022-10-19T11:30:06.040Z,24.81
2022-10-19T11:32:33.317Z,24.75
2022-10-19T11:35:00.382Z,24.69
2022-10-19T11:37:27.276Z,24.56
2022-10-19T11:39:54.179Z,24.50
2022-10-19T11:42:21.089Z,24.44
2022-10-19T11:44:47.989Z,24.38
2022-10-19T11:47:14.883Z,24.31
2022-10-19T11:49:41.776Z,24.25
2022-10-19T11:52:08.704Z,24.19
2022-10-19T11:54:35.609Z,24.19
2022-10-19T11:57:04.955Z,24.13
2022-10-19T11:59:33.402Z,24.06
2022-10-19T12:02:00.351Z,24.00
2022-10-19T12:04:27.303Z,23.94
2022-10-19T12:06:54.219Z,23.94
2022-10-19T12:09:21.133Z,23.88
2022-10-19T12:11:48.072Z,23.81
2022-10-19T12:14:15.011Z,23.75
2022-10-19T12:16:41.935Z,23.75
2022-10-19T12:19:08.866Z,23.69
2022-10-19T12:21:35.792Z,23.69
2022-10-19T12:24:02.736Z,23.63
2022-10-19T12:26:29.631Z,23.63
2022-10-19T12:28:56.546Z,23.56
2022-10-19T12:31:23.465Z,23.50
2022-10-19T12:33:50.379Z,23.50
2022-10-19T12:36:17.329Z,23.44
2022-10-19T12:38:46.136Z,23.44
2022-10-19T12:41:16.152Z,23.38
2022-10-19T12:43:43.071Z,23.38
2022-10-19T12:46:10.007Z,23.31
2022-10-19T12:48:36.942Z,23.31
2022-10-19T12:51:03.883Z,23.25
2022-10-19T12:53:31.137Z,23.25
2022-10-19T12:55:58.296Z,23.25
2022-10-19T12:58:25.191Z,23.19
2022-10-19T13:00:52.146Z,23.19
2022-10-19T13:03:19.091Z,23.19
2022-10-19T13:05:46.017Z,23.13
2022-10-19T13:08:14.560Z,23.13
2022-10-19T13:10:41.753Z,23.13
2022-10-19T13:13:09.130Z,23.13
2022-10-19T13:15:36.037Z,23.13
2022-10-19T13:18:02.934Z,23.06
2022-10-19T13:20:29.947Z,23.06
2022-10-19T13:22:56.930Z,23.06
2022-10-19T13:25:23.848Z,23.06
2022-10-19T13:27:50.756Z,23.06
2022-10-19T13:30:17.685Z,23.06
2022-10-19T13:32:44.611Z,23.00
2022-10-19T13:35:11.521Z,23.00
2022-10-19T13:37:38.431Z,23.00
2022-10-19T13:40:05.348Z,23.00
2022-10-19T13:42:32.467Z,22.94
2022-10-19T13:44:59.596Z,22.94
2022-10-19T13:47:26.545Z,22.94
2022-10-19T13:49:53.498Z,22.88
2022-10-19T13:52:20.433Z,22.88
2022-10-19T13:54:47.364Z,22.81
2022-10-19T13:57:14.323Z,22.81
2022-10-19T13:59:41.259Z,22.81
2022-10-19T14:02:08.184Z,22.75
2022-10-19T14:04:35.112Z,22.75
2022-10-19T14:07:02.043Z,22.69
2022-10-19T14:09:28.961Z,22.69
2022-10-19T14:11:55.872Z,22.63
2022-10-19T14:14:22.793Z,22.63
2022-10-19T14:16:49.929Z,22.63
2022-10-19T14:19:16.828Z,22.56
2022-10-19T14:21:43.787Z,22.56
2022-10-19T14:24:10.687Z,22.50
2022-10-19T14:26:37.608Z,22.50
2022-10-19T14:29:04.537Z,22.44
2022-10-19T14:31:31.477Z,22.44
2022-10-19T14:33:58.411Z,22.38
2022-10-19T14:36:25.311Z,22.38
2022-10-19T14:38:52.236Z,22.38
2022-10-19T14:41:19.154Z,22.31
2022-10-19T14:43:46.076Z,22.31
2022-10-19T14:46:12.973Z,22.31
2022-10-19T14:48:39.888Z,22.25
2022-10-19T14:51:06.939Z,22.25
2022-10-19T14:53:33.855Z,22.25
2022-10-19T14:56:00.795Z,22.19
2022-10-19T14:58:27.700Z,22.19
2022-10-19T15:00:54.624Z,22.19
2022-10-19T15:03:21.568Z,22.13
2022-10-19T15:05:48.481Z,22.13
2022-10-19T15:08:15.380Z,22.13
2022-10-19T15:10:42.294Z,22.13
2022-10-19T15:13:09.208Z,22.06
2022-10-19T15:15:36.125Z,22.06
2022-10-19T15:18:03.098Z,22.06
2022-10-19T15:20:30.081Z,22.00
2022-10-19T15:22:57.014Z,22.00
2022-10-19T15:25:23.938Z,22.00
2022-10-19T15:27:50.864Z,22.00
2022-10-19T15:30:17.774Z,22.00
2022-10-19T15:32:44.683Z,21.94
2022-10-19T15:35:12.056Z,21.94
2022-10-19T15:37:39.066Z,21.94
2022-10-19T15:40:06.006Z,21.88
2022-10-19T15:42:33.227Z,21.88
2022-10-19T15:45:00.409Z,21.88
2022-10-19T15:47:27.323Z,21.88
2022-10-19T15:49:54.244Z,21.88
2022-10-19T15:52:21.186Z,21.81
2022-10-19T15:54:48.101Z,21.81
2022-10-19T15:57:15.049Z,21.81
2022-10-19T15:59:41.964Z,21.81
2022-10-19T16:02:08.940Z,21.75
2022-10-19T16:04:35.885Z,21.75
2022-10-19T16:07:02.826Z,21.75
2022-10-19T16:09:29.732Z,21.75
2022-10-19T16:11:56.682Z,21.75
2022-10-19T16:14:23.641Z,21.75
2022-10-19T16:16:50.535Z,21.69
2022-10-19T16:19:17.458Z,21.69
2022-10-19T16:21:49.313Z,21.69
2022-10-19T16:24:17.124Z,21.63
2022-10-19T16:26:44.019Z,21.63
2022-10-19T16:29:10.913Z,21.63
2022-10-19T16:31:37.825Z,21.63
2022-10-19T16:34:04.765Z,21.63
2022-10-19T16:36:31.710Z,21.56
2022-10-19T16:38:58.645Z,21.56
2022-10-19T16:41:25.575Z,21.56
2022-10-19T16:43:52.515Z,21.56
2022-10-19T16:46:19.493Z,21.56
2022-10-19T16:48:46.396Z,21.50
2022-10-19T16:51:13.382Z,21.50
2022-10-19T16:53:40.320Z,21.50
2022-10-19T16:56:07.225Z,21.50
2022-10-19T16:58:34.171Z,21.44
2022-10-19T17:01:01.091Z,21.44
2022-10-19T17:03:27.989Z,21.44
2022-10-19T17:05:54.901Z,21.44
2022-10-19T17:08:30.657Z,21.44
2022-10-19T17:11:03.765Z,21.44
2022-10-19T17:13:30.693Z,21.38
2022-10-19T17:15:57.612Z,21.38
2022-10-19T17:18:24.543Z,21.38
2022-10-19T17:20:51.464Z,21.38
2022-10-19T17:23:18.419Z,21.38
2022-10-19T17:25:45.326Z,21.38
2022-10-19T17:28:12.222Z,21.31
2022-10-19T17:30:39.115Z,21.31
2022-10-19T17:33:06.030Z,21.31
2022-10-19T17:35:32.923Z,21.31
2022-10-19T17:37:59.824Z,21.31
2022-10-19T17:40:26.760Z,21.31
2022-10-19T17:42:53.661Z,21.31
2022-10-19T17:45:20.568Z,21.25
2022-10-19T17:47:47.454Z,21.25
2022-10-19T17:50:14.364Z,21.25
2022-10-19T17:52:41.309Z,21.25
2022-10-19T17:55:12.185Z,21.25
2022-10-19T17:57:39.659Z,21.25
2022-10-19T18:00:06.574Z,21.25
2022-10-19T18:02:33.513Z,21.25
2022-10-19T18:05:00.488Z,21.25
2022-10-19T18:07:27.401Z,21.19
2022-10-19T18:09:54.335Z,21.19
2022-10-19T18:12:21.276Z,21.19
2022-10-19T18:14:48.244Z,21.19
2022-10-19T18:17:15.146Z,21.19
2022-10-19T18:19:42.065Z,21.19
2022-10-19T18:22:08.992Z,21.13
2022-10-19T18:24:35.886Z,21.13
2022-10-19T18:27:02.800Z,21.13
2022-10-19T18:29:29.764Z,21.13
2022-10-19T18:31:56.768Z,21.13
2022-10-19T18:34:23.702Z,21.13
2022-10-19T18:36:50.614Z,21.06
2022-10-19T18:39:17.526Z,21.06
2022-10-19T18:41:44.448Z,21.06
2022-10-19T18:44:11.367Z,21.06
2022-10-19T18:46:38.266Z,21.06
2022-10-19T18:49:05.179Z,21.06
2022-10-19T18:51:32.113Z,21.06
2022-10-19T18:53:59.076Z,21.06
2022-10-19T18:56:25.985Z,21.00
2022-10-19T18:58:52.906Z,21.00
2022-10-19T19:01:19.875Z,21.00
2022-10-19T19:03:46.865Z,21.00
2022-10-19T19:06:13.767Z,21.00
2022-10-19T19:08:40.775Z,21.00
2022-10-19T19:11:07.857Z,21.00
2022-10-19T19:13:34.764Z,21.00
2022-10-19T19:16:01.688Z,20.94
2022-10-19T19:18:28.604Z,20.94
2022-10-19T19:20:55.534Z,20.94
2022-10-19T19:23:22.471Z,20.94
2022-10-19T19:25:49.364Z,20.94
2022-10-19T19:28:16.324Z,20.94
2022-10-19T19:30:43.262Z,20.94
2022-10-19T19:33:10.176Z,20.94
2022-10-19T19:35:37.097Z,20.94
2022-10-19T19:38:04.016Z,20.88
2022-10-19T19:40:30.935Z,20.88
2022-10-19T19:42:57.836Z,20.88
2022-10-19T19:45:24.799Z,20.88
2022-10-19T19:47:51.740Z,20.88
2022-10-19T19:50:18.666Z,20.88
2022-10-19T19:52:45.573Z,20.88
2022-10-19T19:55:12.570Z,20.88
2022-10-19T19:57:39.480Z,20.88
2022-10-19T20:00:06.394Z,20.88
2022-10-19T20:02:33.329Z,20.81
2022-10-19T20:05:00.265Z,20.81
2022-10-19T20:07:27.206Z,20.81
2022-10-19T20:09:54.124Z,20.81
2022-10-19T20:12:21.059Z,20.81
2022-10-19T20:14:47.972Z,20.81
2022-10-19T20:17:14.910Z,20.81
2022-10-19T20:19:41.877Z,20.81
2022-10-19T20:22:08.791Z,20.81
2022-10-19T20:24:37.640Z,20.81
2022-10-19T20:27:04.784Z,20.81
2022-10-19T20:29:31.727Z,20.81
2022-10-19T20:31:58.621Z,20.81
2022-10-19T20:34:25.541Z,20.81
2022-10-19T20:36:52.462Z,20.81
2022-10-19T20:39:19.376Z,20.81
2022-10-19T20:41:46.261Z,20.81
2022-10-19T20:44:13.176Z,20.81
2022-10-19T20:46:40.085Z,20.81
2022-10-19T20:49:07.011Z,20.81
2022-10-19T20:51:33.986Z,20.75
2022-10-19T20:54:00.898Z,20.81
2022-10-19T20:56:27.797Z,20.75
2022-10-19T20:58:54.747Z,20.75
2022-10-19T21:01:21.729Z,20.75
2022-10-19T21:03:48.685Z,20.75
2022-10-19T21:06:15.587Z,20.75
2022-10-19T21:08:42.559Z,20.75
2022-10-19T21:11:09.516Z,20.75
2022-10-19T21:13:36.424Z,20.69
2022-10-19T21:16:03.320Z,20.69
2022-10-19T21:18:30.252Z,20.69
2022-10-19T21:20:57.175Z,20.69
2022-10-19T21:23:24.092Z,20.69
2022-10-19T21:25:51.004Z,20.69
2022-10-19T21:28:17.921Z,20.69
2022-10-19T21:30:44.831Z,20.63
2022-10-19T21:33:11.746Z,20.63
2022-10-19T21:35:38.686Z,20.63
2022-10-19T21:38:05.593Z,20.63
2022-10-19T21:40:32.561Z,20.63
2022-10-19T21:42:59.459Z,20.63
2022-10-19T21:45:30.186Z,20.63
2022-10-19T21:47:57.781Z,20.63
2022-10-19T21:50:24.675Z,20.56
2022-10-19T21:52:51.596Z,20.56
2022-10-19T21:55:18.521Z,20.56
2022-10-19T21:57:45.429Z,20.56
2022-10-19T22:00:12.343Z,20.56
2022-10-19T22:02:39.253Z,20.56
2022-10-19T22:05:06.178Z,20.56
2022-10-19T22:07:33.275Z,20.50
2022-10-19T22:10:00.468Z,20.50
2022-10-19T22:12:27.395Z,20.50
2022-10-19T22:14:54.329Z,20.50
2022-10-19T22:17:21.249Z,20.50
2022-10-19T22:19:48.157Z,20.50
2022-10-19T22:22:15.121Z,20.44
2022-10-19T22:24:42.043Z,20.50
2022-10-19T22:27:08.953Z,20.50
2022-10-19T22:29:35.862Z,20.44
2022-10-19T22:32:02.804Z,20.44
2022-10-19T22:34:29.718Z,20.44
2022-10-19T22:36:56.607Z,20.44
2022-10-19T22:39:26.947Z,20.44
2022-10-19T22:41:54.949Z,20.44
2022-10-19T22:44:21.844Z,20.44
2022-10-19T22:46:48.781Z,20.44
2022-10-19T22:49:15.710Z,20.44
2022-10-19T22:51:42.636Z,20.44
2022-10-19T22:54:09.564Z,20.44
2022-10-19T22:56:36.484Z,20.38
2022-10-19T22:59:03.417Z,20.38
2022-10-19T23:01:30.426Z,20.38
2022-10-19T23:03:57.381Z,20.38
2022-10-19T23:06:24.355Z,20.44
2022-10-19T23:08:51.281Z,20.38
2022-10-19T23:11:18.241Z,20.38
2022-10-19T23:13:45.177Z,20.38
2022-10-19T23:16:12.110Z,20.44
2022-10-19T23:18:39.027Z,20.38
2022-10-19T23:21:05.941Z,20.44
2022-10-19T23:23:32.879Z,20.38
2022-10-19T23:25:59.770Z,20.38
2022-10-19T23:28:26.684Z,20.38
2022-10-19T23:30:53.584Z,20.44
2022-10-19T23:33:20.491Z,20.44
2022-10-19T23:35:47.437Z,20.44
2022-10-19T23:38:14.359Z,20.44
2022-10-19T23:40:41.274Z,20.38
2022-10-19T23:43:08.194Z,20.38
2022-10-19T23:45:35.130Z,20.38
2022-10-19T23:48:02.020Z,20.44
2022-10-19T23:50:28.918Z,20.38
2022-10-19T23:52:55.829Z,20.38
2022-10-19T23:55:22.741Z,20.38
2022-10-19T23:57:49.661Z,20.38
